createdAt,value
2018-12-20T00:00:22.546Z,44.33
2018-12-20T00:02:50.439Z,41.40
2018-12-20T00:05:18.255Z,43.92
2018-12-20T00:07:46.163Z,47.70
2018-12-20T00:10:14.126Z,47.65
2018-12-20T00:12:42.009Z,40.78
2018-12-20T00:15:09.790Z,39.80
2018-12-20T00:17:43.375Z,43.38
2018-12-20T00:20:11.268Z,41.65
2018-12-20T00:22:39.276Z,41.75
2018-12-20T00:25:08.029Z,41.95
2018-12-20T00:27:36.604Z,45.33
2018-12-20T00:30:05.226Z,44.77
2018-12-20T00:32:33.180Z,40.55
2018-12-20T00:35:01.118Z,45.17
2018-12-20T00:37:28.979Z,43.58
2018-12-20T00:39:56.844Z,40.52
2018-12-20T00:42:24.727Z,44.58
2018-12-20T00:44:52.571Z,42.85
2018-12-20T00:47:20.335Z,46.33
2018-12-20T00:49:48.297Z,43.73
2018-12-20T00:52:16.789Z,43.02
2018-12-20T00:54:44.657Z,47.48
2018-12-20T00:57:12.520Z,43.48
2018-12-20T00:59:40.386Z,41.33
2018-12-20T01:02:08.661Z,46.00
2018-12-20T01:04:36.648Z,47.03
2018-12-20T01:07:06.288Z,41.33
2018-12-20T01:09:34.225Z,47.08
2018-12-20T01:12:02.867Z,45.45
2018-12-20T01:14:31.567Z,50.23
2018-12-20T01:16:59.687Z,48.28
2018-12-20T01:19:28.183Z,46.08
2018-12-20T01:21:56.045Z,45.05
2018-12-20T01:24:23.969Z,46.15
2018-12-20T01:26:52.668Z,50.50
2018-12-20T01:29:20.602Z,45.60
2018-12-20T01:31:48.506Z,45.63
2018-12-20T01:34:16.351Z,46.58
2018-12-20T01:36:44.223Z,48.90
2018-12-20T01:39:12.118Z,48.78
2018-12-20T01:41:39.984Z,50.12
2018-12-20T01:44:08.043Z,48.42
2018-12-20T01:46:36.569Z,47.03
2018-12-20T01:49:04.649Z,49.10
2018-12-20T01:51:33.134Z,48.13
2018-12-20T01:54:01.053Z,48.52
2018-12-20T01:56:29.614Z,53.42
2018-12-20T01:58:57.382Z,56.42
2018-12-20T02:01:25.304Z,49.73
2018-12-20T02:03:53.740Z,45.17
2018-12-20T02:06:24.411Z,49.13
2018-12-20T02:08:54.063Z,48.63
2018-12-20T02:11:25.457Z,61.35
2018-12-20T02:13:53.383Z,51.00
2018-12-20T02:16:21.230Z,54.23
2018-12-20T02:18:49.068Z,54.13
2018-12-20T02:21:16.888Z,55.05
2018-12-20T02:23:44.668Z,53.75
2018-12-20T02:26:12.647Z,48.98
2018-12-20T02:28:40.707Z,54.30
2018-12-20T02:31:09.272Z,56.65
2018-12-20T02:33:37.385Z,56.88
2018-12-20T02:36:06.061Z,55.15
2018-12-20T02:38:34.567Z,56.40
2018-12-20T02:41:02.428Z,55.23
2018-12-20T02:43:30.353Z,53.42
2018-12-20T02:45:58.214Z,54.42
2018-12-20T02:48:25.980Z,56.25
2018-12-20T02:50:54.458Z,57.50
2018-12-20T02:53:22.430Z,57.98
2018-12-20T02:55:50.908Z,55.08
2018-12-20T02:58:18.741Z,55.03
2018-12-20T03:00:46.656Z,54.83
2018-12-20T03:03:14.788Z,53.28
2018-12-20T03:05:43.437Z,53.75
2018-12-20T03:08:11.991Z,53.13
2018-12-20T03:10:40.034Z,57.73
2018-12-20T03:13:08.542Z,59.38
2018-12-20T03:15:36.412Z,61.75
2018-12-20T03:18:05.368Z,55.73
2018-12-20T03:20:34.040Z,54.33
2018-12-20T03:23:02.086Z,56.20
2018-12-20T03:25:30.642Z,55.45
2018-12-20T03:27:58.500Z,56.85
2018-12-20T03:30:26.442Z,54.27
2018-12-20T03:32:55.458Z,59.27
2018-12-20T03:35:24.217Z,58.23
2018-12-20T03:37:52.748Z,52.70
2018-12-20T03:40:20.744Z,61.28
2018-12-20T03:42:49.568Z,58.73
2018-12-20T03:45:18.071Z,52.83
2018-12-20T03:47:45.836Z,58.80
2018-12-20T03:50:13.761Z,58.08
2018-12-20T03:52:42.445Z,53.83
2018-12-20T03:55:10.979Z,60.30
2018-12-20T03:57:38.973Z,49.25
2018-12-20T04:00:07.629Z,59.60
2018-12-20T04:02:36.321Z,55.23
2018-12-20T04:05:05.356Z,59.35
2018-12-20T04:07:33.996Z,59.93
2018-12-20T04:10:02.654Z,53.10
2018-12-20T04:12:31.204Z,54.90
2018-12-20T04:14:59.303Z,58.65
2018-12-20T04:17:27.893Z,57.30
2018-12-20T04:19:56.578Z,58.63
2018-12-20T04:22:24.469Z,58.15
2018-12-20T04:24:52.254Z,60.92
2018-12-20T04:27:20.107Z,54.10
2018-12-20T04:29:48.073Z,60.35
2018-12-20T04:32:16.562Z,67.27
2018-12-20T04:34:44.429Z,60.90
2018-12-20T04:37:12.226Z,63.23
2018-12-20T04:39:40.162Z,58.38
2018-12-20T04:42:08.229Z,52.98
2018-12-20T04:44:36.600Z,55.52
2018-12-20T04:47:04.480Z,90.10
2018-12-20T04:49:32.334Z,76.60
2018-12-20T04:52:00.326Z,58.83
2018-12-20T04:54:28.169Z,54.33
2018-12-20T04:56:56.027Z,56.75
2018-12-20T04:59:23.941Z,58.13
2018-12-20T05:01:52.111Z,62.13
2018-12-20T05:04:20.967Z,54.33
2018-12-20T05:06:48.834Z,60.95
2018-12-20T05:09:16.668Z,65.62
2018-12-20T05:11:45.284Z,56.05
2018-12-20T05:14:13.151Z,54.42
2018-12-20T05:16:40.966Z,56.18
2018-12-20T05:19:08.781Z,59.55
2018-12-20T05:21:36.921Z,58.55
2018-12-20T05:24:05.437Z,56.85
2018-12-20T05:26:33.508Z,59.40
2018-12-20T05:29:02.200Z,62.15
2018-12-20T05:31:30.744Z,57.73
2018-12-20T05:33:59.260Z,62.98
2018-12-20T05:36:27.257Z,61.50
2018-12-20T05:38:55.842Z,67.50
2018-12-20T05:41:24.394Z,61.20
2018-12-20T05:43:52.093Z,62.25
2018-12-20T05:46:20.080Z,61.30
2018-12-20T05:48:48.636Z,55.78
2018-12-20T05:51:16.590Z,65.52
2018-12-20T05:53:44.446Z,65.42
2018-12-20T05:56:12.240Z,69.17
2018-12-20T05:58:40.093Z,64.12
2018-12-20T06:01:08.187Z,64.85
2018-12-20T06:03:36.528Z,59.08
2018-12-20T06:06:05.258Z,67.92
2018-12-20T06:08:33.358Z,58.80
2018-12-20T06:11:02.007Z,64.07
2018-12-20T06:13:30.552Z,63.23
2018-12-20T06:15:58.452Z,60.63
2018-12-20T06:18:26.601Z,62.98
2018-12-20T06:20:55.089Z,64.53
2018-12-20T06:23:22.941Z,65.30
2018-12-20T06:25:50.705Z,72.78
2018-12-20T06:28:18.471Z,61.58
2018-12-20T06:30:46.233Z,62.83
2018-12-20T06:33:13.936Z,66.00
2018-12-20T06:35:41.762Z,66.22
2018-12-20T06:38:09.629Z,64.90
2018-12-20T06:40:37.397Z,76.57
2018-12-20T06:43:05.260Z,67.75
2018-12-20T06:45:32.961Z,61.50
2018-12-20T06:48:00.789Z,71.00
2018-12-20T06:50:28.553Z,63.63
2018-12-20T06:52:56.421Z,68.85
2018-12-20T06:55:24.288Z,67.97
2018-12-20T06:57:52.154Z,60.63
2018-12-20T07:00:20.020Z,63.80
2018-12-20T07:02:47.784Z,65.42
2018-12-20T07:05:15.485Z,59.10
2018-12-20T07:07:43.312Z,61.77
2018-12-20T07:10:11.083Z,67.45
2018-12-20T07:12:38.840Z,69.05
2018-12-20T07:15:08.038Z,66.77
2018-12-20T07:17:35.802Z,65.62
2018-12-20T07:20:04.536Z,69.92
2018-12-20T07:22:32.355Z,59.03
2018-12-20T07:25:00.118Z,58.85
2018-12-20T07:27:27.984Z,59.23
2018-12-20T07:29:55.750Z,65.67
2018-12-20T07:32:25.225Z,59.93
2018-12-20T07:34:53.325Z,64.95
2018-12-20T07:37:21.088Z,65.97
2018-12-20T07:39:48.852Z,65.55
2018-12-20T07:42:16.720Z,64.87
2018-12-20T07:44:44.588Z,68.28
2018-12-20T07:47:12.296Z,64.92
2018-12-20T07:49:40.115Z,65.25
2018-12-20T07:52:07.980Z,69.80
2018-12-20T07:54:35.847Z,66.40
2018-12-20T07:57:03.712Z,64.75
2018-12-20T07:59:31.579Z,65.90
2018-12-20T08:01:59.445Z,64.82
2018-12-20T08:04:27.313Z,63.83
2018-12-20T08:06:55.178Z,69.97
2018-12-20T08:09:22.941Z,65.72
2018-12-20T08:11:50.706Z,68.78
2018-12-20T08:14:18.470Z,69.82
2018-12-20T08:16:46.414Z,62.45
2018-12-20T08:19:14.817Z,63.02
2018-12-20T08:21:42.683Z,59.93
2018-12-20T08:24:10.447Z,60.40
2018-12-20T08:26:38.314Z,62.95
2018-12-20T08:29:06.078Z,66.12
2018-12-20T08:31:33.842Z,73.10
2018-12-20T08:34:01.607Z,67.22
2018-12-20T08:36:29.472Z,65.78
2018-12-20T08:38:57.236Z,68.00
2018-12-20T08:41:25.109Z,63.95
2018-12-20T08:43:52.867Z,68.92
2018-12-20T08:46:20.633Z,65.35
2018-12-20T08:48:48.478Z,59.93
2018-12-20T08:51:16.262Z,73.45
2018-12-20T08:53:44.026Z,65.15
2018-12-20T08:56:11.892Z,68.62
2018-12-20T08:58:39.657Z,66.57
2018-12-20T09:01:07.523Z,66.42
2018-12-20T09:03:35.390Z,69.72
2018-12-20T09:06:03.257Z,73.78
2018-12-20T09:08:31.021Z,72.32
2018-12-20T09:10:58.790Z,73.62
2018-12-20T09:13:26.549Z,72.37
2018-12-20T09:15:54.415Z,74.85
2018-12-20T09:18:22.284Z,79.85
2018-12-20T09:20:50.150Z,70.32
2018-12-20T09:23:18.016Z,67.70
2018-12-20T09:25:45.780Z,66.00
2018-12-20T09:28:13.646Z,71.53
2018-12-20T09:30:41.411Z,71.02
2018-12-20T09:33:09.277Z,70.00
2018-12-20T09:35:37.041Z,63.02
2018-12-20T09:38:04.806Z,77.00
2018-12-20T09:40:32.595Z,66.72
2018-12-20T09:43:00.538Z,76.97
2018-12-20T09:45:28.509Z,72.85
2018-12-20T09:47:58.425Z,71.90
2018-12-20T09:50:26.290Z,73.52
2018-12-20T09:52:54.054Z,71.75
2018-12-20T09:55:21.818Z,74.00
2018-12-20T09:57:49.582Z,75.28
2018-12-20T10:00:17.346Z,75.35
2018-12-20T10:02:45.214Z,69.65
2018-12-20T10:05:13.029Z,70.20
2018-12-20T10:07:40.895Z,75.92
2018-12-20T10:10:08.812Z,69.92
2018-12-20T10:12:36.577Z,73.33
2018-12-20T10:15:05.570Z,71.15
2018-12-20T10:17:33.453Z,113.42
2018-12-20T10:20:01.302Z,94.32
2018-12-20T10:22:29.118Z,75.03
2018-12-20T10:24:56.935Z,67.92
2018-12-20T10:27:31.394Z,81.72
2018-12-20T10:29:54.512Z,83.12
2018-12-20T10:32:22.376Z,68.78
2018-12-20T10:34:50.080Z,82.12
2018-12-20T10:37:17.905Z,72.55
2018-12-20T10:39:45.669Z,72.95
2018-12-20T10:42:13.535Z,65.28
2018-12-20T10:44:41.300Z,73.42
2018-12-20T10:47:14.799Z,80.55
2018-12-20T10:49:42.666Z,75.20
2018-12-20T10:52:10.476Z,75.20
2018-12-20T10:54:38.296Z,75.20
2018-12-20T10:57:06.163Z,71.53
2018-12-20T10:59:33.926Z,76.42
2018-12-20T11:02:07.528Z,77.25
2018-12-20T11:04:41.129Z,77.20
2018-12-20T11:07:14.831Z,72.78
2018-12-20T11:09:48.433Z,80.40
2018-12-20T11:12:18.351Z,66.07
2018-12-20T11:14:46.214Z,79.67
2018-12-20T11:17:13.979Z,83.55
2018-12-20T11:19:41.845Z,72.87
2018-12-20T11:22:09.714Z,69.55
2018-12-20T11:24:37.476Z,73.80
2018-12-20T11:27:05.242Z,77.05
2018-12-20T11:29:33.107Z,79.03
2018-12-20T11:32:00.974Z,83.10
2018-12-20T11:34:28.677Z,76.45
2018-12-20T11:36:56.507Z,76.00
2018-12-20T11:39:24.369Z,69.47
2018-12-20T11:41:52.135Z,85.53
2018-12-20T11:44:19.896Z,65.95
2018-12-20T11:46:49.080Z,76.22
2018-12-20T11:49:17.473Z,76.62
2018-12-20T11:51:45.238Z,77.17
2018-12-20T11:54:13.105Z,77.55
2018-12-20T11:56:40.869Z,79.62
2018-12-20T11:59:08.633Z,70.05
2018-12-20T12:01:36.501Z,69.58
2018-12-20T12:04:04.265Z,68.35
2018-12-20T12:06:32.028Z,68.80
2018-12-20T12:08:59.792Z,78.55
2018-12-20T12:11:27.574Z,137.47
2018-12-20T12:13:55.423Z,119.77
2018-12-20T12:16:23.290Z,71.70
2018-12-20T12:18:51.053Z,70.92
2018-12-20T12:21:18.818Z,71.82
2018-12-20T12:23:46.582Z,72.22
2018-12-20T12:26:14.449Z,73.72
2018-12-20T12:28:42.167Z,78.28
2018-12-20T12:31:09.977Z,71.90
2018-12-20T12:33:37.689Z,79.72
2018-12-20T12:36:05.506Z,72.03
2018-12-20T12:38:33.372Z,80.15
2018-12-20T12:41:01.239Z,68.72
2018-12-20T12:43:29.003Z,79.30
2018-12-20T12:45:56.767Z,90.87
2018-12-20T12:48:24.634Z,74.77
2018-12-20T12:50:52.402Z,74.53
2018-12-20T12:53:21.494Z,77.25
2018-12-20T12:55:49.460Z,129.40
2018-12-20T12:58:17.329Z,101.58
2018-12-20T13:00:45.197Z,142.10
2018-12-20T13:03:13.062Z,106.27
2018-12-20T13:05:40.829Z,155.50
2018-12-20T13:08:08.693Z,91.95
2018-12-20T13:10:36.458Z,113.08
2018-12-20T13:13:04.324Z,90.17
2018-12-20T13:15:32.137Z,86.60
2018-12-20T13:17:59.955Z,83.97
2018-12-20T13:20:27.719Z,99.72
2018-12-20T13:22:55.459Z,94.52
2018-12-20T13:25:23.247Z,91.35
2018-12-20T13:27:51.114Z,108.12
2018-12-20T13:30:18.880Z,94.40
2018-12-20T13:32:46.744Z,81.78
2018-12-20T13:35:14.613Z,86.12
2018-12-20T13:37:42.479Z,75.05
2018-12-20T13:40:10.344Z,86.22
2018-12-20T13:42:38.157Z,62.75
2018-12-20T13:45:05.976Z,97.00
2018-12-20T13:47:33.842Z,80.53
2018-12-20T13:50:01.709Z,91.70
2018-12-20T13:52:31.624Z,89.22
2018-12-20T13:54:59.388Z,88.58
2018-12-20T13:57:27.254Z,89.10
2018-12-20T13:59:55.121Z,77.00
2018-12-20T14:02:22.989Z,81.00
2018-12-20T14:04:50.753Z,83.55
2018-12-20T14:07:18.516Z,81.12
2018-12-20T14:09:46.384Z,85.80
2018-12-20T14:12:14.249Z,81.63
2018-12-20T14:14:42.119Z,79.65
2018-12-20T14:17:09.882Z,75.97
2018-12-20T14:19:37.747Z,80.05
2018-12-20T14:22:05.511Z,73.35
2018-12-20T14:24:33.323Z,92.78
2018-12-20T14:27:02.068Z,88.58
2018-12-20T14:29:29.933Z,101.53
2018-12-20T14:31:57.796Z,101.90
2018-12-20T14:34:25.560Z,88.00
2018-12-20T14:36:53.325Z,92.10
2018-12-20T14:39:21.089Z,81.87
2018-12-20T14:41:48.853Z,94.47
2018-12-20T14:44:16.720Z,92.10
2018-12-20T14:46:44.485Z,86.82
2018-12-20T14:49:12.351Z,66.95
2018-12-20T14:51:40.217Z,99.47
2018-12-20T14:54:08.084Z,89.62
2018-12-20T14:56:35.848Z,81.42
2018-12-20T14:59:03.616Z,94.80
2018-12-20T15:01:31.377Z,96.28
2018-12-20T15:03:59.141Z,113.30
2018-12-20T15:06:26.905Z,88.87
2018-12-20T15:08:54.616Z,104.20
2018-12-20T15:11:22.434Z,114.00
2018-12-20T15:13:50.300Z,116.15
2018-12-20T15:16:18.166Z,97.30
2018-12-20T15:18:47.787Z,105.20
2018-12-20T15:21:15.948Z,109.40
2018-12-20T15:23:43.712Z,108.90
2018-12-20T15:26:11.525Z,91.57
2018-12-20T15:28:39.343Z,91.28
2018-12-20T15:31:07.208Z,126.82
2018-12-20T15:33:35.076Z,141.20
2018-12-20T15:36:02.942Z,113.00
2018-12-20T15:38:30.810Z,95.90
2018-12-20T15:40:58.675Z,90.42
2018-12-20T15:43:26.441Z,99.37
2018-12-20T15:45:54.149Z,106.12
2018-12-20T15:48:21.913Z,93.05
2018-12-20T15:50:49.733Z,110.25
2018-12-20T15:53:17.601Z,102.17
2018-12-20T15:55:45.319Z,99.52
2018-12-20T15:58:13.128Z,100.35
2018-12-20T16:00:40.994Z,85.10
2018-12-20T16:03:08.861Z,88.27
2018-12-20T16:05:36.730Z,97.12
2018-12-20T16:08:06.337Z,101.70
2018-12-20T16:10:34.201Z,190.68
2018-12-20T16:13:01.966Z,94.17
2018-12-20T16:15:29.832Z,152.53
2018-12-20T16:17:57.597Z,181.20
2018-12-20T16:20:26.238Z,135.12
2018-12-20T16:22:54.047Z,118.33
2018-12-20T16:25:21.913Z,127.50
2018-12-20T16:27:51.316Z,92.30
2018-12-20T16:30:19.184Z,102.55
2018-12-20T16:32:46.947Z,97.85
2018-12-20T16:35:14.814Z,109.00
2018-12-20T16:37:42.680Z,106.17
2018-12-20T16:40:10.547Z,106.22
2018-12-20T16:42:38.311Z,88.27
2018-12-20T16:45:06.179Z,86.08
2018-12-20T16:47:33.943Z,97.27
2018-12-20T16:50:01.808Z,98.90
2018-12-20T16:52:29.512Z,99.42
2018-12-20T16:54:57.336Z,85.45
2018-12-20T16:57:25.204Z,100.22
2018-12-20T16:59:53.074Z,92.65
2018-12-20T17:02:20.938Z,94.25
2018-12-20T17:04:48.701Z,96.30
2018-12-20T17:07:16.464Z,89.35
2018-12-20T17:09:44.232Z,95.60
2018-12-20T17:12:12.197Z,119.72
2018-12-20T17:14:40.065Z,124.07
2018-12-20T17:17:07.832Z,126.67
2018-12-20T17:19:35.593Z,107.35
2018-12-20T17:22:03.460Z,122.60
2018-12-20T17:24:31.327Z,119.93
2018-12-20T17:26:59.194Z,113.62
2018-12-20T17:29:27.111Z,111.35
2018-12-20T17:31:55.028Z,115.57
2018-12-20T17:34:22.896Z,323.10
2018-12-20T17:36:50.762Z,112.70
2018-12-20T17:39:18.526Z,99.97
2018-12-20T17:41:46.347Z,115.00
2018-12-20T17:44:14.157Z,117.65
2018-12-20T17:46:42.027Z,110.88
2018-12-20T17:49:09.894Z,109.03
2018-12-20T17:51:37.759Z,113.65
2018-12-20T17:54:05.625Z,111.68
2018-12-20T17:56:33.880Z,113.12
2018-12-20T17:59:02.483Z,112.68
2018-12-20T18:01:30.351Z,112.57
2018-12-20T18:03:58.117Z,107.05
2018-12-20T18:06:26.085Z,118.00
2018-12-20T18:08:53.897Z,116.77
2018-12-20T18:11:21.714Z,124.42
2018-12-20T18:13:49.436Z,121.97
2018-12-20T18:16:17.243Z,117.03
2018-12-20T18:18:45.110Z,107.35
2018-12-20T18:21:12.873Z,124.10
2018-12-20T18:23:40.743Z,114.32
2018-12-20T18:26:08.508Z,121.33
2018-12-20T18:28:36.371Z,126.78
2018-12-20T18:31:04.182Z,127.92
2018-12-20T18:33:32.002Z,116.15
2018-12-20T18:35:59.739Z,130.35
2018-12-20T18:38:27.530Z,117.55
2018-12-20T18:40:55.349Z,120.50
2018-12-20T18:43:23.162Z,116.15
2018-12-20T18:45:51.028Z,132.30
2018-12-20T18:48:18.794Z,126.35
2018-12-20T18:50:46.559Z,130.35
2018-12-20T18:53:14.423Z,130.52
2018-12-20T18:55:42.290Z,124.87
2018-12-20T18:58:10.156Z,111.03
2018-12-20T19:00:37.921Z,116.55
2018-12-20T19:03:05.632Z,128.00
2018-12-20T19:05:33.449Z,121.72
2018-12-20T19:08:01.213Z,132.90
2018-12-20T19:10:29.081Z,125.90
2018-12-20T19:12:56.896Z,131.55
2018-12-20T19:15:24.715Z,119.08
2018-12-20T19:17:52.578Z,177.87
2018-12-20T19:20:20.344Z,152.75
2018-12-20T19:22:48.211Z,147.55
2018-12-20T19:25:16.085Z,146.18
2018-12-20T19:27:43.840Z,107.58
2018-12-20T19:30:11.708Z,104.87
2018-12-20T19:32:39.582Z,121.05
2018-12-20T19:35:07.439Z,123.02
2018-12-20T19:37:35.307Z,115.72
2018-12-20T19:40:03.528Z,114.42
2018-12-20T19:42:31.346Z,127.90
2018-12-20T19:44:59.217Z,105.78
2018-12-20T19:47:27.080Z,116.80
2018-12-20T19:49:54.948Z,139.85
2018-12-20T19:52:22.814Z,119.87
2018-12-20T19:54:50.680Z,136.32
2018-12-20T19:57:18.547Z,131.57
2018-12-20T19:59:46.311Z,137.52
2018-12-20T20:02:14.077Z,150.45
2018-12-20T20:04:41.844Z,117.72
2018-12-20T20:07:09.604Z,132.63
2018-12-20T20:09:37.471Z,147.87
2018-12-20T20:12:05.238Z,111.00
2018-12-20T20:14:33.108Z,122.07
2018-12-20T20:17:00.912Z,117.17
2018-12-20T20:19:28.733Z,121.05
2018-12-20T20:21:56.599Z,129.07
2018-12-20T20:24:24.365Z,128.65
2018-12-20T20:26:52.133Z,125.12
2018-12-20T20:29:19.996Z,116.75
2018-12-20T20:31:47.861Z,111.03
2018-12-20T20:34:15.672Z,120.42
2018-12-20T20:36:43.492Z,126.15
2018-12-20T20:39:11.256Z,129.65
2018-12-20T20:41:39.123Z,119.40
2018-12-20T20:44:06.990Z,126.38
2018-12-20T20:46:34.754Z,120.47
2018-12-20T20:49:02.620Z,116.73
2018-12-20T20:51:30.386Z,122.35
2018-12-20T20:53:58.364Z,119.62
2018-12-20T20:56:26.838Z,101.80
2018-12-20T20:58:54.600Z,106.97
2018-12-20T21:01:22.365Z,100.62
2018-12-20T21:03:50.128Z,103.53
2018-12-20T21:06:17.995Z,113.05
2018-12-20T21:08:45.759Z,109.67
2018-12-20T21:11:13.626Z,125.20
2018-12-20T21:13:41.492Z,122.20
2018-12-20T21:16:09.256Z,114.47
2018-12-20T21:18:37.021Z,126.45
2018-12-20T21:21:04.840Z,115.90
2018-12-20T21:23:32.652Z,117.95
2018-12-20T21:26:00.518Z,118.67
2018-12-20T21:28:28.386Z,128.10
2018-12-20T21:30:56.252Z,110.35
2018-12-20T21:33:24.017Z,102.58
2018-12-20T21:35:51.781Z,100.90
2018-12-20T21:38:19.545Z,93.15
2018-12-20T21:40:47.311Z,104.97
2018-12-20T21:43:15.073Z,101.42
2018-12-20T21:45:42.837Z,108.60
2018-12-20T21:48:10.704Z,97.90
2018-12-20T21:50:39.070Z,109.32
2018-12-20T21:53:07.752Z,105.37
2018-12-20T21:55:35.533Z,98.70
2018-12-20T21:58:03.401Z,108.22
2018-12-20T22:00:31.169Z,103.45
2018-12-20T22:02:59.035Z,102.62
2018-12-20T22:05:26.795Z,100.53
2018-12-20T22:07:54.608Z,103.40
2018-12-20T22:10:22.426Z,115.17
2018-12-20T22:12:50.194Z,106.87
2018-12-20T22:15:18.057Z,101.30
2018-12-20T22:17:45.826Z,96.63
2018-12-20T22:20:13.688Z,86.95
2018-12-20T22:22:41.452Z,89.40
2018-12-20T22:25:09.219Z,91.57
2018-12-20T22:27:36.982Z,84.83
2018-12-20T22:30:06.281Z,97.55
2018-12-20T22:32:34.148Z,94.05
2018-12-20T22:35:02.015Z,109.22
2018-12-20T22:37:29.854Z,104.80
2018-12-20T22:39:57.645Z,106.78
2018-12-20T22:42:25.414Z,100.20
2018-12-20T22:44:53.226Z,102.02
2018-12-20T22:47:21.071Z,102.75
2018-12-20T22:49:49.003Z,111.10
2018-12-20T22:52:16.875Z,106.92
2018-12-20T22:54:44.579Z,116.17
2018-12-20T22:57:12.407Z,126.65
2018-12-20T22:59:40.109Z,118.13
2018-12-20T23:02:08.546Z,127.27
2018-12-20T23:04:36.323Z,114.97
2018-12-20T23:07:04.033Z,111.22
2018-12-20T23:09:32.336Z,106.58
2018-12-20T23:12:00.395Z,98.17
2018-12-20T23:14:28.085Z,128.72
2018-12-20T23:16:55.784Z,121.33
2018-12-20T23:19:23.613Z,123.35
2018-12-20T23:21:51.329Z,118.65
2018-12-20T23:24:19.040Z,113.77
2018-12-20T23:26:46.738Z,122.95
2018-12-20T23:29:14.443Z,107.92
2018-12-20T23:31:42.204Z,99.22
2018-12-20T23:34:09.898Z,94.00
2018-12-20T23:36:37.600Z,92.88
2018-12-20T23:39:05.921Z,92.72
2018-12-20T23:41:33.908Z,95.95
2018-12-20T23:44:01.613Z,88.10
2018-12-20T23:46:29.632Z,98.78
2018-12-20T23:48:57.344Z,104.55
2018-12-20T23:51:25.185Z,90.55
2018-12-20T23:53:52.928Z,98.07
2018-12-20T23:56:20.632Z,90.95
2018-12-20T23:58:48.336Z,102.35
